sensor_id;sensor_type;location;lat;lon;timestamp;P1;durP1;ratioP1;P2;durP2;ratioP2
39294;SDS011;52361;52.100;5.248;2022-11-18T00:01:22;3.0;;;1.7;;
39294;SDS011;52361;52.100;5.248;2022-11-18T00:02:59;3.4;;;1.6;;
39294;SDS011;52361;52.100;5.248;2022-11-18T00:06:12;2.5;;;1.8;;
39294;SDS011;52361;52.100;5.248;2022-11-18T00:07:50;5.7;;;2.0;;
39294;SDS011;52361;52.100;5.248;2022-11-18T00:09:26;3.3;;;1.4;;
39294;SDS011;52361;52.100;5.248;2022-11-18T00:14:30;4.41;;;2.0;;
39294;SDS011;52361;52.100;5.248;2022-11-18T00:16:07;2.7;;;1.5;;
39294;SDS011;52361;52.100;5.248;2022-11-18T00:17:47;5.3;;;2.0;;
39294;SDS011;52361;52.100;5.248;2022-11-18T00:21:02;3.7;;;1.7;;
39294;SDS011;52361;52.100;5.248;2022-11-18T00:22:41;3.0;;;1.9;;
39294;SDS011;52361;52.100;5.248;2022-11-18T00:24:18;1.8;;;1.3;;
39294;SDS011;52361;52.100;5.248;2022-11-18T00:25:55;2.31;;;1.7;;
39294;SDS011;52361;52.100;5.248;2022-11-18T00:29:13;3.0;;;1.9;;
39294;SDS011;52361;52.100;5.248;2022-11-18T00:30:50;2.4;;;1.4;;
39294;SDS011;52361;52.100;5.248;2022-11-18T00:32:26;3.0;;;2.1;;
39294;SDS011;52361;52.100;5.248;2022-11-18T00:35:40;3.1;;;1.8;;
39294;SDS011;52361;52.100;5.248;2022-11-18T00:37:16;2.5;;;1.7;;
39294;SDS011;52361;52.100;5.248;2022-11-18T00:38:52;6.4;;;2.21;;
39294;SDS011;52361;52.100;5.248;2022-11-18T00:40:28;4.0;;;1.8;;
39294;SDS011;52361;52.100;5.248;2022-11-18T00:44:44;4.61;;;2.0;;
39294;SDS011;52361;52.100;5.248;2022-11-18T00:47:57;3.6;;;2.0;;
39294;SDS011;52361;52.100;5.248;2022-11-18T00:49:33;3.8;;;2.1;;
39294;SDS011;52361;52.100;5.248;2022-11-18T00:51:10;4.3;;;1.8;;
39294;SDS011;52361;52.100;5.248;2022-11-18T00:54:30;3.3;;;1.7;;
39294;SDS011;52361;52.100;5.248;2022-11-18T00:56:06;3.0;;;1.9;;
39294;SDS011;52361;52.100;5.248;2022-11-18T00:57:43;2.8;;;1.7;;
39294;SDS011;52361;52.100;5.248;2022-11-18T00:59:19;5.0;;;1.4;;
39294;SDS011;52361;52.100;5.248;2022-11-18T01:02:32;3.9;;;1.7;;
39294;SDS011;52361;52.100;5.248;2022-11-18T01:04:09;3.5;;;2.0;;
39294;SDS011;52361;52.100;5.248;2022-11-18T01:05:45;7.5;;;2.31;;
39294;SDS011;52361;52.100;5.248;2022-11-18T01:08:58;4.3;;;1.6;;
39294;SDS011;52361;52.100;5.248;2022-11-18T01:10:34;3.1;;;1.8;;
39294;SDS011;52361;52.100;5.248;2022-11-18T01:13:31;3.5;;;1.7;;
39294;SDS011;52361;52.100;5.248;2022-11-18T01:15:07;5.11;;;2.31;;
39294;SDS011;52361;52.100;5.248;2022-11-18T01:16:52;5.6;;;2.4;;
39294;SDS011;52361;52.100;5.248;2022-11-18T01:18:29;2.8;;;1.9;;
39294;SDS011;52361;52.100;5.248;2022-11-18T01:21:43;4.1;;;1.8;;
39294;SDS011;52361;52.100;5.248;2022-11-18T01:23:20;6.9;;;1.8;;
39294;SDS011;52361;52.100;5.248;2022-11-18T01:24:56;3.7;;;1.8;;
39294;SDS011;52361;52.100;5.248;2022-11-18T01:26:32;3.2;;;1.6;;
39294;SDS011;52361;52.100;5.248;2022-11-18T01:29:45;4.2;;;1.9;;
39294;SDS011;52361;52.100;5.248;2022-11-18T01:31:21;5.8;;;2.1;;
39294;SDS011;52361;52.100;5.248;2022-11-18T01:32:59;3.2;;;1.9;;
39294;SDS011;52361;52.100;5.248;2022-11-18T01:36:13;4.91;;;1.8;;
39294;SDS011;52361;52.100;5.248;2022-11-18T01:37:52;5.11;;;2.0;;
39294;SDS011;52361;52.100;5.248;2022-11-18T01:39:30;2.6;;;2.1;;
39294;SDS011;52361;52.100;5.248;2022-11-18T01:42:43;4.8;;;2.31;;
39294;SDS011;52361;52.100;5.248;2022-11-18T01:45:25;4.3;;;2.0;;
39294;SDS011;52361;52.100;5.248;2022-11-18T01:47:06;4.3;;;2.1;;
39294;SDS011;52361;52.100;5.248;2022-11-18T01:48:42;3.6;;;2.0;;
39294;SDS011;52361;52.100;5.248;2022-11-18T01:50:21;3.1;;;1.5;;
39294;SDS011;52361;52.100;5.248;2022-11-18T01:52:00;4.61;;;1.7;;
39294;SDS011;52361;52.100;5.248;2022-11-18T01:55:17;3.1;;;1.9;;
39294;SDS011;52361;52.100;5.248;2022-11-18T01:56:59;2.9;;;1.9;;
39294;SDS011;52361;52.100;5.248;2022-11-18T01:58:41;4.3;;;2.21;;
39294;SDS011;52361;52.100;5.248;2022-11-18T02:00:21;3.6;;;2.0;;
39294;SDS011;52361;52.100;5.248;2022-11-18T02:03:38;3.6;;;2.21;;
39294;SDS011;52361;52.100;5.248;2022-11-18T02:05:15;4.41;;;2.1;;
39294;SDS011;52361;52.100;5.248;2022-11-18T02:06:52;5.7;;;2.6;;
39294;SDS011;52361;52.100;5.248;2022-11-18T02:08:29;4.8;;;2.1;;
39294;SDS011;52361;52.100;5.248;2022-11-18T02:11:57;3.2;;;2.4;;
39294;SDS011;52361;52.100;5.248;2022-11-18T02:13:33;6.0;;;1.8;;
39294;SDS011;52361;52.100;5.248;2022-11-18T02:15:09;6.6;;;2.21;;
39294;SDS011;52361;52.100;5.248;2022-11-18T02:16:50;6.0;;;2.31;;
39294;SDS011;52361;52.100;5.248;2022-11-18T02:20:30;3.4;;;1.6;;
39294;SDS011;52361;52.100;5.248;2022-11-18T02:22:11;6.3;;;2.21;;
39294;SDS011;52361;52.100;5.248;2022-11-18T02:24:13;2.8;;;2.0;;
39294;SDS011;52361;52.100;5.248;2022-11-18T02:26:27;5.2;;;1.7;;
39294;SDS011;52361;52.100;5.248;2022-11-18T02:30:00;5.7;;;2.1;;
39294;SDS011;52361;52.100;5.248;2022-11-18T02:31:41;4.91;;;1.8;;
39294;SDS011;52361;52.100;5.248;2022-11-18T02:35:12;4.0;;;2.0;;
39294;SDS011;52361;52.100;5.248;2022-11-18T02:36:56;5.5;;;2.21;;
39294;SDS011;52361;52.100;5.248;2022-11-18T02:38:40;3.0;;;1.8;;
39294;SDS011;52361;52.100;5.248;2022-11-18T02:40:21;3.5;;;2.1;;
39294;SDS011;52361;52.100;5.248;2022-11-18T02:42:01;10.1;;;2.4;;
39294;SDS011;52361;52.100;5.248;2022-11-18T02:45:24;3.8;;;2.6;;
39294;SDS011;52361;52.100;5.248;2022-11-18T02:47:04;4.0;;;2.1;;
39294;SDS011;52361;52.100;5.248;2022-11-18T02:48:46;5.9;;;2.21;;
39294;SDS011;52361;52.100;5.248;2022-11-18T02:50:25;3.8;;;2.21;;
39294;SDS011;52361;52.100;5.248;2022-11-18T02:53:45;3.7;;;2.0;;
39294;SDS011;52361;52.100;5.248;2022-11-18T02:55:24;3.4;;;1.9;;
39294;SDS011;52361;52.100;5.248;2022-11-18T02:57:05;6.3;;;2.7;;
39294;SDS011;52361;52.100;5.248;2022-11-18T02:58:43;5.6;;;2.6;;
39294;SDS011;52361;52.100;5.248;2022-11-18T03:01:55;3.9;;;2.4;;
39294;SDS011;52361;52.100;5.248;2022-11-18T03:03:33;10.21;;;2.31;;
39294;SDS011;52361;52.100;5.248;2022-11-18T03:05:12;4.91;;;2.8;;
39294;SDS011;52361;52.100;5.248;2022-11-18T03:08:41;5.0;;;2.21;;
39294;SDS011;52361;52.100;5.248;2022-11-18T03:10:24;6.2;;;2.4;;
39294;SDS011;52361;52.100;5.248;2022-11-18T03:12:12;3.2;;;2.0;;
39294;SDS011;52361;52.100;5.248;2022-11-18T03:14:02;5.2;;;2.1;;
39294;SDS011;52361;52.100;5.248;2022-11-18T03:15:52;4.3;;;2.5;;
39294;SDS011;52361;52.100;5.248;2022-11-18T03:17:39;3.4;;;2.31;;
39294;SDS011;52361;52.100;5.248;2022-11-18T03:21:15;4.8;;;1.8;;
39294;SDS011;52361;52.100;5.248;2022-11-18T03:22:59;4.1;;;2.4;;
39294;SDS011;52361;52.100;5.248;2022-11-18T03:24:44;8.6;;;2.21;;
39294;SDS011;52361;52.100;5.248;2022-11-18T03:26:30;7.1;;;2.4;;
39294;SDS011;52361;52.100;5.248;2022-11-18T03:28:11;6.6;;;2.6;;
39294;SDS011;52361;52.100;5.248;2022-11-18T03:31:37;3.5;;;1.9;;
39294;SDS011;52361;52.100;5.248;2022-11-18T03:33:18;4.3;;;2.5;;
39294;SDS011;52361;52.100;5.248;2022-11-18T03:35:00;4.0;;;2.5;;
39294;SDS011;52361;52.100;5.248;2022-11-18T03:36:42;3.8;;;1.9;;
39294;SDS011;52361;52.100;5.248;2022-11-18T03:38:24;5.6;;;2.0;;
39294;SDS011;52361;52.100;5.248;2022-11-18T03:41:52;8.31;;;2.7;;
39294;SDS011;52361;52.100;5.248;2022-11-18T03:43:37;4.8;;;2.21;;
39294;SDS011;52361;52.100;5.248;2022-11-18T03:45:20;9.4;;;2.0;;
39294;SDS011;52361;52.100;5.248;2022-11-18T03:47:01;4.41;;;1.9;;
39294;SDS011;52361;52.100;5.248;2022-11-18T03:50:28;5.0;;;2.8;;
39294;SDS011;52361;52.100;5.248;2022-11-18T03:53:52;3.7;;;2.1;;
39294;SDS011;52361;52.100;5.248;2022-11-18T03:55:34;5.0;;;2.1;;
39294;SDS011;52361;52.100;5.248;2022-11-18T03:57:18;2.9;;;2.0;;
39294;SDS011;52361;52.100;5.248;2022-11-18T04:00:50;3.2;;;2.31;;
39294;SDS011;52361;52.100;5.248;2022-11-18T04:02:32;5.5;;;2.6;;
39294;SDS011;52361;52.100;5.248;2022-11-18T04:04:09;5.5;;;2.6;;
39294;SDS011;52361;52.100;5.248;2022-11-18T04:05:47;4.61;;;1.7;;
39294;SDS011;52361;52.100;5.248;2022-11-18T04:09:13;3.0;;;2.1;;
39294;SDS011;52361;52.100;5.248;2022-11-18T04:10:57;6.5;;;2.9;;
39294;SDS011;52361;52.100;5.248;2022-11-18T04:12:39;8.1;;;3.1;;
39294;SDS011;52361;52.100;5.248;2022-11-18T04:14:21;6.4;;;2.21;;
39294;SDS011;52361;52.100;5.248;2022-11-18T04:15:57;2.7;;;2.21;;
39294;SDS011;52361;52.100;5.248;2022-11-18T04:19:10;4.1;;;2.31;;
39294;SDS011;52361;52.100;5.248;2022-11-18T04:20:46;5.6;;;2.31;;
39294;SDS011;52361;52.100;5.248;2022-11-18T04:22:23;5.5;;;2.5;;
39294;SDS011;52361;52.100;5.248;2022-11-18T04:25:35;8.71;;;2.6;;
39294;SDS011;52361;52.100;5.248;2022-11-18T04:27:11;4.61;;;2.21;;
39294;SDS011;52361;52.100;5.248;2022-11-18T04:28:48;7.4;;;3.0;;
39294;SDS011;52361;52.100;5.248;2022-11-18T04:32:02;4.41;;;2.31;;
39294;SDS011;52361;52.100;5.248;2022-11-18T04:33:40;8.71;;;2.5;;
39294;SDS011;52361;52.100;5.248;2022-11-18T04:35:16;4.3;;;2.6;;
39294;SDS011;52361;52.100;5.248;2022-11-18T04:36:52;3.2;;;2.1;;
39294;SDS011;52361;52.100;5.248;2022-11-18T04:40:06;3.7;;;2.1;;
39294;SDS011;52361;52.100;5.248;2022-11-18T04:41:59;5.5;;;2.1;;
39294;SDS011;52361;52.100;5.248;2022-11-18T04:48:25;4.1;;;2.0;;
39294;SDS011;52361;52.100;5.248;2022-11-18T04:50:01;4.61;;;2.21;;
39294;SDS011;52361;52.100;5.248;2022-11-18T04:51:38;5.7;;;2.4;;
39294;SDS011;52361;52.100;5.248;2022-11-18T04:54:51;8.71;;;3.5;;
39294;SDS011;52361;52.100;5.248;2022-11-18T04:56:28;4.41;;;2.5;;
39294;SDS011;52361;52.100;5.248;2022-11-18T04:58:05;5.9;;;2.9;;
39294;SDS011;52361;52.100;5.248;2022-11-18T05:01:17;5.5;;;2.8;;
39294;SDS011;52361;52.100;5.248;2022-11-18T05:02:53;4.91;;;2.21;;
39294;SDS011;52361;52.100;5.248;2022-11-18T05:04:30;4.7;;;2.5;;
39294;SDS011;52361;52.100;5.248;2022-11-18T05:07:44;6.7;;;2.6;;
39294;SDS011;52361;52.100;5.248;2022-11-18T05:09:20;5.0;;;2.5;;
39294;SDS011;52361;52.100;5.248;2022-11-18T05:12:47;3.7;;;2.0;;
39294;SDS011;52361;52.100;5.248;2022-11-18T05:14:24;3.9;;;1.9;;
39294;SDS011;52361;52.100;5.248;2022-11-18T05:16:01;3.9;;;2.0;;
39294;SDS011;52361;52.100;5.248;2022-11-18T05:17:37;2.8;;;1.9;;
39294;SDS011;52361;52.100;5.248;2022-11-18T05:19:13;6.8;;;2.5;;
39294;SDS011;52361;52.100;5.248;2022-11-18T05:20:49;2.9;;;1.9;;
39294;SDS011;52361;52.100;5.248;2022-11-18T05:24:02;4.41;;;2.0;;
39294;SDS011;52361;52.100;5.248;2022-11-18T05:25:40;7.7;;;2.21;;
39294;SDS011;52361;52.100;5.248;2022-11-18T05:27:17;3.6;;;2.21;;
39294;SDS011;52361;52.100;5.248;2022-11-18T05:30:29;3.4;;;2.0;;
39294;SDS011;52361;52.100;5.248;2022-11-18T05:32:05;3.8;;;2.0;;
39294;SDS011;52361;52.100;5.248;2022-11-18T05:33:42;6.9;;;2.0;;
39294;SDS011;52361;52.100;5.248;2022-11-18T05:36:55;3.5;;;2.1;;
39294;SDS011;52361;52.100;5.248;2022-11-18T05:38:31;2.7;;;1.9;;
39294;SDS011;52361;52.100;5.248;2022-11-18T05:40:09;4.0;;;2.0;;
39294;SDS011;52361;52.100;5.248;2022-11-18T05:43:10;6.5;;;2.31;;
39294;SDS011;52361;52.100;5.248;2022-11-18T05:44:47;3.9;;;2.4;;
39294;SDS011;52361;52.100;5.248;2022-11-18T05:46:24;8.81;;;2.7;;
39294;SDS011;52361;52.100;5.248;2022-11-18T05:48:03;7.2;;;2.4;;
39294;SDS011;52361;52.100;5.248;2022-11-18T05:51:18;4.8;;;2.4;;
39294;SDS011;52361;52.100;5.248;2022-11-18T05:52:54;3.5;;;2.21;;
39294;SDS011;52361;52.100;5.248;2022-11-18T05:54:30;3.7;;;1.9;;
39294;SDS011;52361;52.100;5.248;2022-11-18T05:57:53;6.3;;;2.0;;
39294;SDS011;52361;52.100;5.248;2022-11-18T05:59:30;5.11;;;2.1;;
39294;SDS011;52361;52.100;5.248;2022-11-18T06:01:06;4.5;;;2.31;;
39294;SDS011;52361;52.100;5.248;2022-11-18T06:02:45;5.5;;;2.5;;
39294;SDS011;52361;52.100;5.248;2022-11-18T06:06:08;7.4;;;2.31;;
39294;SDS011;52361;52.100;5.248;2022-11-18T06:09:23;4.8;;;2.31;;
39294;SDS011;52361;52.100;5.248;2022-11-18T06:11:06;3.4;;;2.1;;
39294;SDS011;52361;52.100;5.248;2022-11-18T06:14:29;6.5;;;2.0;;
39294;SDS011;52361;52.100;5.248;2022-11-18T06:16:12;8.6;;;2.8;;
39294;SDS011;52361;52.100;5.248;2022-11-18T06:17:49;4.5;;;2.5;;
39294;SDS011;52361;52.100;5.248;2022-11-18T06:19:30;4.5;;;2.21;;
39294;SDS011;52361;52.100;5.248;2022-11-18T06:22:44;3.4;;;1.9;;
39294;SDS011;52361;52.100;5.248;2022-11-18T06:24:21;8.4;;;2.4;;
39294;SDS011;52361;52.100;5.248;2022-11-18T06:25:58;4.5;;;2.31;;
39294;SDS011;52361;52.100;5.248;2022-11-18T06:29:11;5.3;;;2.6;;
39294;SDS011;52361;52.100;5.248;2022-11-18T06:30:51;2.8;;;2.21;;
39294;SDS011;52361;52.100;5.248;2022-11-18T06:32:30;5.11;;;2.31;;
39294;SDS011;52361;52.100;5.248;2022-11-18T06:34:06;3.4;;;2.1;;
39294;SDS011;52361;52.100;5.248;2022-11-18T06:37:20;6.3;;;2.21;;
39294;SDS011;52361;52.100;5.248;2022-11-18T06:38:57;4.1;;;2.31;;
39294;SDS011;52361;52.100;5.248;2022-11-18T06:40:38;2.8;;;1.8;;
39294;SDS011;52361;52.100;5.248;2022-11-18T06:45:13;3.7;;;2.1;;
39294;SDS011;52361;52.100;5.248;2022-11-18T06:46:57;2.5;;;2.21;;
39294;SDS011;52361;52.100;5.248;2022-11-18T06:50:09;5.6;;;2.1;;
39294;SDS011;52361;52.100;5.248;2022-11-18T06:51:46;5.0;;;2.0;;
39294;SDS011;52361;52.100;5.248;2022-11-18T06:53:22;5.4;;;2.1;;
39294;SDS011;52361;52.100;5.248;2022-11-18T06:54:58;4.2;;;2.5;;
39294;SDS011;52361;52.100;5.248;2022-11-18T06:58:12;6.2;;;2.8;;
39294;SDS011;52361;52.100;5.248;2022-11-18T06:59:48;5.5;;;2.0;;
39294;SDS011;52361;52.100;5.248;2022-11-18T07:01:24;6.7;;;2.31;;
39294;SDS011;52361;52.100;5.248;2022-11-18T07:04:39;5.7;;;1.8;;
39294;SDS011;52361;52.100;5.248;2022-11-18T07:06:16;4.61;;;1.8;;
39294;SDS011;52361;52.100;5.248;2022-11-18T07:07:55;3.4;;;1.9;;
39294;SDS011;52361;52.100;5.248;2022-11-18T07:11:10;4.41;;;2.31;;
39294;SDS011;52361;52.100;5.248;2022-11-18T07:12:49;3.0;;;2.1;;
39294;SDS011;52361;52.100;5.248;2022-11-18T07:14:26;4.0;;;2.0;;
39294;SDS011;52361;52.100;5.248;2022-11-18T07:16:03;2.8;;;2.31;;
39294;SDS011;52361;52.100;5.248;2022-11-18T07:19:18;4.1;;;2.5;;
39294;SDS011;52361;52.100;5.248;2022-11-18T07:20:55;3.5;;;1.9;;
39294;SDS011;52361;52.100;5.248;2022-11-18T07:22:31;3.7;;;2.21;;
39294;SDS011;52361;52.100;5.248;2022-11-18T07:25:46;3.8;;;2.0;;
39294;SDS011;52361;52.100;5.248;2022-11-18T07:27:22;4.1;;;2.1;;
39294;SDS011;52361;52.100;5.248;2022-11-18T07:30:35;4.41;;;2.0;;
39294;SDS011;52361;52.100;5.248;2022-11-18T07:33:48;3.4;;;2.0;;
39294;SDS011;52361;52.100;5.248;2022-11-18T07:35:24;9.0;;;2.9;;
39294;SDS011;52361;52.100;5.248;2022-11-18T07:37:01;6.9;;;2.5;;
39294;SDS011;52361;52.100;5.248;2022-11-18T07:40:15;5.2;;;2.21;;
39294;SDS011;52361;52.100;5.248;2022-11-18T07:41:51;5.0;;;2.4;;
39294;SDS011;52361;52.100;5.248;2022-11-18T07:43:27;5.2;;;1.8;;
39294;SDS011;52361;52.100;5.248;2022-11-18T07:46:41;3.2;;;1.8;;
39294;SDS011;52361;52.100;5.248;2022-11-18T07:48:18;2.4;;;1.9;;
39294;SDS011;52361;52.100;5.248;2022-11-18T07:49:54;3.9;;;1.9;;
39294;SDS011;52361;52.100;5.248;2022-11-18T07:51:31;2.6;;;1.8;;
39294;SDS011;52361;52.100;5.248;2022-11-18T07:54:46;4.91;;;2.0;;
39294;SDS011;52361;52.100;5.248;2022-11-18T07:56:22;3.3;;;2.21;;
39294;SDS011;52361;52.100;5.248;2022-11-18T07:57:59;7.6;;;2.5;;
39294;SDS011;52361;52.100;5.248;2022-11-18T08:01:13;5.0;;;2.21;;
39294;SDS011;52361;52.100;5.248;2022-11-18T08:02:51;4.0;;;1.9;;
39294;SDS011;52361;52.100;5.248;2022-11-18T08:06:04;5.0;;;2.1;;
39294;SDS011;52361;52.100;5.248;2022-11-18T08:09:19;4.7;;;2.4;;
39294;SDS011;52361;52.100;5.248;2022-11-18T08:10:56;8.1;;;2.7;;
39294;SDS011;52361;52.100;5.248;2022-11-18T08:12:33;3.2;;;2.1;;
39294;SDS011;52361;52.100;5.248;2022-11-18T08:15:45;3.0;;;2.31;;
39294;SDS011;52361;52.100;5.248;2022-11-18T08:17:22;5.8;;;2.4;;
39294;SDS011;52361;52.100;5.248;2022-11-18T08:18:58;6.9;;;2.4;;
39294;SDS011;52361;52.100;5.248;2022-11-18T08:22:11;8.31;;;2.4;;
39294;SDS011;52361;52.100;5.248;2022-11-18T08:23:48;3.4;;;2.4;;
39294;SDS011;52361;52.100;5.248;2022-11-18T08:25:26;7.4;;;3.0;;
39294;SDS011;52361;52.100;5.248;2022-11-18T08:27:03;6.8;;;2.31;;
39294;SDS011;52361;52.100;5.248;2022-11-18T08:30:16;10.4;;;2.5;;
39294;SDS011;52361;52.100;5.248;2022-11-18T08:31:53;4.5;;;1.9;;
39294;SDS011;52361;52.100;5.248;2022-11-18T08:33:29;8.2;;;2.7;;
39294;SDS011;52361;52.100;5.248;2022-11-18T08:36:43;6.1;;;2.9;;
39294;SDS011;52361;52.100;5.248;2022-11-18T08:38:19;5.5;;;2.0;;
39294;SDS011;52361;52.100;5.248;2022-11-18T08:39:56;4.0;;;2.31;;
39294;SDS011;52361;52.100;5.248;2022-11-18T08:43:12;11.6;;;2.8;;
39294;SDS011;52361;52.100;5.248;2022-11-18T08:44:49;3.1;;;2.1;;
39294;SDS011;52361;52.100;5.248;2022-11-18T08:46:25;5.4;;;2.21;;
39294;SDS011;52361;52.100;5.248;2022-11-18T08:48:02;7.5;;;2.5;;
39294;SDS011;52361;52.100;5.248;2022-11-18T08:51:15;6.5;;;2.5;;
39294;SDS011;52361;52.100;5.248;2022-11-18T08:52:51;4.3;;;2.6;;
39294;SDS011;52361;52.100;5.248;2022-11-18T08:54:27;6.4;;;2.7;;
39294;SDS011;52361;52.100;5.248;2022-11-18T08:57:40;3.9;;;2.1;;
39294;SDS011;52361;52.100;5.248;2022-11-18T08:59:17;5.0;;;2.1;;
39294;SDS011;52361;52.100;5.248;2022-11-18T09:00:53;5.3;;;2.4;;
39294;SDS011;52361;52.100;5.248;2022-11-18T09:04:06;6.6;;;2.5;;
39294;SDS011;52361;52.100;5.248;2022-11-18T09:05:42;2.5;;;1.9;;
39294;SDS011;52361;52.100;5.248;2022-11-18T09:07:20;5.6;;;1.9;;
39294;SDS011;52361;52.100;5.248;2022-11-18T09:08:57;7.3;;;2.31;;
39294;SDS011;52361;52.100;5.248;2022-11-18T09:12:13;5.3;;;2.5;;
39294;SDS011;52361;52.100;5.248;2022-11-18T09:13:51;10.21;;;2.8;;
39294;SDS011;52361;52.100;5.248;2022-11-18T09:15:28;6.1;;;3.3;;
39294;SDS011;52361;52.100;5.248;2022-11-18T09:18:42;4.91;;;2.31;;
39294;SDS011;52361;52.100;5.248;2022-11-18T09:20:18;6.2;;;2.4;;
39294;SDS011;52361;52.100;5.248;2022-11-18T09:21:54;5.9;;;2.21;;
39294;SDS011;52361;52.100;5.248;2022-11-18T09:23:31;4.8;;;2.1;;
39294;SDS011;52361;52.100;5.248;2022-11-18T09:26:44;5.0;;;2.8;;
39294;SDS011;52361;52.100;5.248;2022-11-18T09:28:21;6.4;;;2.7;;
39294;SDS011;52361;52.100;5.248;2022-11-18T09:29:57;2.7;;;2.0;;
39294;SDS011;52361;52.100;5.248;2022-11-18T09:33:09;5.6;;;2.5;;
39294;SDS011;52361;52.100;5.248;2022-11-18T09:34:45;2.6;;;2.4;;
39294;SDS011;52361;52.100;5.248;2022-11-18T09:36:24;4.7;;;2.5;;
39294;SDS011;52361;52.100;5.248;2022-11-18T09:39:37;3.5;;;2.31;;
39294;SDS011;52361;52.100;5.248;2022-11-18T09:41:16;4.8;;;2.4;;
39294;SDS011;52361;52.100;5.248;2022-11-18T09:43:11;4.2;;;2.5;;
39294;SDS011;52361;52.100;5.248;2022-11-18T09:44:59;3.0;;;2.1;;
39294;SDS011;52361;52.100;5.248;2022-11-18T09:46:49;3.5;;;2.5;;
39294;SDS011;52361;52.100;5.248;2022-11-18T09:49:41;3.5;;;2.5;;
39294;SDS011;52361;52.100;5.248;2022-11-18T09:51:19;3.7;;;2.4;;
39294;SDS011;52361;52.100;5.248;2022-11-18T09:53:02;5.2;;;2.21;;
39294;SDS011;52361;52.100;5.248;2022-11-18T09:56:25;4.7;;;2.5;;
39294;SDS011;52361;52.100;5.248;2022-11-18T09:58:02;3.5;;;2.1;;
39294;SDS011;52361;52.100;5.248;2022-11-18T10:01:18;3.3;;;2.0;;
39294;SDS011;52361;52.100;5.248;2022-11-18T10:04:36;3.3;;;2.0;;
39294;SDS011;52361;52.100;5.248;2022-11-18T10:06:15;4.3;;;2.5;;
39294;SDS011;52361;52.100;5.248;2022-11-18T10:08:02;7.1;;;2.8;;
39294;SDS011;52361;52.100;5.248;2022-11-18T10:09:50;3.4;;;3.0;;
39294;SDS011;52361;52.100;5.248;2022-11-18T10:13:18;6.1;;;2.1;;
39294;SDS011;52361;52.100;5.248;2022-11-18T10:15:08;4.41;;;2.31;;
39294;SDS011;52361;52.100;5.248;2022-11-18T10:16:57;6.7;;;2.31;;
39294;SDS011;52361;52.100;5.248;2022-11-18T10:18:44;6.1;;;2.5;;
39294;SDS011;52361;52.100;5.248;2022-11-18T10:20:31;2.8;;;2.21;;
39294;SDS011;52361;52.100;5.248;2022-11-18T10:22:24;5.9;;;2.31;;
39294;SDS011;52361;52.100;5.248;2022-11-18T10:25:49;3.9;;;2.21;;
39294;SDS011;52361;52.100;5.248;2022-11-18T10:27:32;3.3;;;2.4;;
39294;SDS011;52361;52.100;5.248;2022-11-18T10:29:12;6.1;;;2.8;;
39294;SDS011;52361;52.100;5.248;2022-11-18T10:30:49;5.6;;;2.4;;
39294;SDS011;52361;52.100;5.248;2022-11-18T10:34:02;3.0;;;2.4;;
39294;SDS011;52361;52.100;5.248;2022-11-18T10:35:39;4.3;;;2.7;;
39294;SDS011;52361;52.100;5.248;2022-11-18T10:37:24;3.7;;;2.4;;
39294;SDS011;52361;52.100;5.248;2022-11-18T10:39:05;5.4;;;2.4;;
39294;SDS011;52361;52.100;5.248;2022-11-18T10:42:33;4.41;;;2.21;;
39294;SDS011;52361;52.100;5.248;2022-11-18T10:44:32;6.3;;;2.8;;
39294;SDS011;52361;52.100;5.248;2022-11-18T10:46:16;3.7;;;2.31;;
39294;SDS011;52361;52.100;5.248;2022-11-18T10:47:59;3.9;;;2.1;;
39294;SDS011;52361;52.100;5.248;2022-11-18T10:49:42;4.0;;;2.4;;
39294;SDS011;52361;52.100;5.248;2022-11-18T10:52:58;5.4;;;2.9;;
39294;SDS011;52361;52.100;5.248;2022-11-18T10:54:36;4.2;;;2.8;;
39294;SDS011;52361;52.100;5.248;2022-11-18T10:56:14;5.11;;;2.4;;
39294;SDS011;52361;52.100;5.248;2022-11-18T11:01:14;4.61;;;2.6;;
39294;SDS011;52361;52.100;5.248;2022-11-18T11:02:55;5.11;;;2.31;;
39294;SDS011;52361;52.100;5.248;2022-11-18T11:04:33;2.6;;;2.1;;
39294;SDS011;52361;52.100;5.248;2022-11-18T11:06:32;5.4;;;2.4;;
39294;SDS011;52361;52.100;5.248;2022-11-18T11:08:16;5.11;;;2.21;;
39294;SDS011;52361;52.100;5.248;2022-11-18T11:11:55;4.61;;;1.9;;
39294;SDS011;52361;52.100;5.248;2022-11-18T11:13:35;5.8;;;2.4;;
39294;SDS011;52361;52.100;5.248;2022-11-18T11:15:19;3.6;;;1.9;;
39294;SDS011;52361;52.100;5.248;2022-11-18T11:17:10;3.3;;;2.0;;
39294;SDS011;52361;52.100;5.248;2022-11-18T11:18:51;7.7;;;2.6;;
39294;SDS011;52361;52.100;5.248;2022-11-18T11:22:11;5.3;;;2.31;;
39294;SDS011;52361;52.100;5.248;2022-11-18T11:23:48;5.2;;;2.4;;
39294;SDS011;52361;52.100;5.248;2022-11-18T11:25:26;3.1;;;2.0;;
39294;SDS011;52361;52.100;5.248;2022-11-18T11:27:14;6.6;;;2.4;;
39294;SDS011;52361;52.100;5.248;2022-11-18T11:29:33;3.5;;;2.9;;
39294;SDS011;52361;52.100;5.248;2022-11-18T11:31:37;5.2;;;2.31;;
39294;SDS011;52361;52.100;5.248;2022-11-18T11:33:28;3.9;;;2.4;;
39294;SDS011;52361;52.100;5.248;2022-11-18T11:36:57;4.61;;;1.5;;
39294;SDS011;52361;52.100;5.248;2022-11-18T11:38:47;9.1;;;3.3;;
39294;SDS011;52361;52.100;5.248;2022-11-18T11:40:31;2.9;;;2.21;;
39294;SDS011;52361;52.100;5.248;2022-11-18T11:42:17;7.6;;;2.5;;
39294;SDS011;52361;52.100;5.248;2022-11-18T11:44:16;3.4;;;2.6;;
39294;SDS011;52361;52.100;5.248;2022-11-18T11:46:08;4.61;;;2.8;;
39294;SDS011;52361;52.100;5.248;2022-11-18T11:48:07;3.2;;;2.4;;
39294;SDS011;52361;52.100;5.248;2022-11-18T11:50:26;5.9;;;2.4;;
39294;SDS011;52361;52.100;5.248;2022-11-18T11:52:08;4.3;;;2.4;;
39294;SDS011;52361;52.100;5.248;2022-11-18T11:55:50;7.3;;;2.5;;
39294;SDS011;52361;52.100;5.248;2022-11-18T11:57:40;5.7;;;2.4;;
39294;SDS011;52361;52.100;5.248;2022-11-18T11:59:36;6.5;;;2.0;;
39294;SDS011;52361;52.100;5.248;2022-11-18T12:01:21;4.0;;;2.21;;
39294;SDS011;52361;52.100;5.248;2022-11-18T12:03:10;3.7;;;2.21;;
39294;SDS011;52361;52.100;5.248;2022-11-18T12:05:06;7.4;;;2.5;;
39294;SDS011;52361;52.100;5.248;2022-11-18T12:06:52;4.1;;;2.5;;
39294;SDS011;52361;52.100;5.248;2022-11-18T12:10:16;3.6;;;2.5;;
39294;SDS011;52361;52.100;5.248;2022-11-18T12:12:04;3.6;;;2.31;;
39294;SDS011;52361;52.100;5.248;2022-11-18T12:13:52;4.2;;;2.6;;
39294;SDS011;52361;52.100;5.248;2022-11-18T12:17:26;4.8;;;2.31;;
39294;SDS011;52361;52.100;5.248;2022-11-18T12:20:49;6.0;;;2.8;;
39294;SDS011;52361;52.100;5.248;2022-11-18T12:22:57;6.9;;;2.8;;
39294;SDS011;52361;52.100;5.248;2022-11-18T12:24:44;10.6;;;3.8;;
39294;SDS011;52361;52.100;5.248;2022-11-18T12:26:32;5.3;;;3.3;;
39294;SDS011;52361;52.100;5.248;2022-11-18T12:28:09;5.3;;;2.5;;
39294;SDS011;52361;52.100;5.248;2022-11-18T12:29:54;6.2;;;3.0;;
39294;SDS011;52361;52.100;5.248;2022-11-18T12:33:11;12.1;;;3.6;;
39294;SDS011;52361;52.100;5.248;2022-11-18T12:34:55;6.9;;;3.5;;
39294;SDS011;52361;52.100;5.248;2022-11-18T12:36:35;5.9;;;4.1;;
39294;SDS011;52361;52.100;5.248;2022-11-18T12:38:26;5.6;;;3.5;;
39294;SDS011;52361;52.100;5.248;2022-11-18T12:40:08;9.1;;;3.9;;
39294;SDS011;52361;52.100;5.248;2022-11-18T12:45:47;6.6;;;4.2;;
39294;SDS011;52361;52.100;5.248;2022-11-18T12:47:55;7.2;;;4.2;;
39294;SDS011;52361;52.100;5.248;2022-11-18T12:50:07;7.3;;;4.61;;
39294;SDS011;52361;52.100;5.248;2022-11-18T12:51:45;11.1;;;4.8;;
39294;SDS011;52361;52.100;5.248;2022-11-18T12:53:28;9.0;;;5.6;;
39294;SDS011;52361;52.100;5.248;2022-11-18T12:55:12;10.4;;;3.9;;
39294;SDS011;52361;52.100;5.248;2022-11-18T12:56:52;5.4;;;3.8;;
39294;SDS011;52361;52.100;5.248;2022-11-18T13:00:26;8.6;;;5.5;;
39294;SDS011;52361;52.100;5.248;2022-11-18T13:02:16;7.1;;;4.8;;
39294;SDS011;52361;52.100;5.248;2022-11-18T13:04:04;10.4;;;4.91;;
39294;SDS011;52361;52.100;5.248;2022-11-18T13:05:43;9.0;;;4.41;;
39294;SDS011;52361;52.100;5.248;2022-11-18T13:08:23;8.9;;;5.5;;
39294;SDS011;52361;52.100;5.248;2022-11-18T13:10:01;11.3;;;4.91;;
39294;SDS011;52361;52.100;5.248;2022-11-18T13:11:55;8.6;;;5.11;;
39294;SDS011;52361;52.100;5.248;2022-11-18T13:13:35;7.9;;;4.41;;
39294;SDS011;52361;52.100;5.248;2022-11-18T13:19:21;9.21;;;5.4;;
39294;SDS011;52361;52.100;5.248;2022-11-18T13:25:35;9.0;;;4.5;;
39294;SDS011;52361;52.100;5.248;2022-11-18T13:27:20;7.1;;;4.1;;
39294;SDS011;52361;52.100;5.248;2022-11-18T13:29:21;8.71;;;5.11;;
39294;SDS011;52361;52.100;5.248;2022-11-18T13:31:18;6.7;;;4.41;;